sensor_id;sensor_type;location;lat;lon;timestamp;P1;durP1;ratioP1;P2;durP2;ratioP2
28631;SDS011;15818;45.534;5.292;2022-09-20T00:03:14;5.45;;;1.48;;
28631;SDS011;15818;45.534;5.292;2022-09-20T00:05:42;5.07;;;1.35;;
28631;SDS011;15818;45.534;5.292;2022-09-20T00:08:11;4.60;;;1.20;;
28631;SDS011;15818;45.534;5.292;2022-09-20T00:10:39;6.50;;;1.67;;
28631;SDS011;15818;45.534;5.292;2022-09-20T00:13:07;7.10;;;1.48;;
28631;SDS011;15818;45.534;5.292;2022-09-20T00:15:39;6.60;;;1.38;;
28631;SDS011;15818;45.534;5.292;2022-09-20T00:18:09;4.07;;;1.35;;
28631;SDS011;15818;45.534;5.292;2022-09-20T00:20:36;6.75;;;1.42;;
28631;SDS011;15818;45.534;5.292;2022-09-20T00:23:08;3.83;;;1.40;;
28631;SDS011;15818;45.534;5.292;2022-09-20T00:27:59;4.18;;;1.13;;
28631;SDS011;15818;45.534;5.292;2022-09-20T00:30:25;2.55;;;1.20;;
28631;SDS011;15818;45.534;5.292;2022-09-20T00:32:52;6.00;;;1.42;;
28631;SDS011;15818;45.534;5.292;2022-09-20T00:37:43;2.72;;;1.40;;
28631;SDS011;15818;45.534;5.292;2022-09-20T00:40:13;2.10;;;0.95;;
28631;SDS011;15818;45.534;5.292;2022-09-20T00:42:40;6.22;;;1.55;;
28631;SDS011;15818;45.534;5.292;2022-09-20T00:53:09;4.03;;;1.30;;
28631;SDS011;15818;45.534;5.292;2022-09-20T00:55:40;5.00;;;1.20;;
28631;SDS011;15818;45.534;5.292;2022-09-20T00:58:09;5.95;;;1.45;;
28631;SDS011;15818;45.534;5.292;2022-09-20T01:00:36;5.07;;;1.55;;
28631;SDS011;15818;45.534;5.292;2022-09-20T01:03:05;5.65;;;1.30;;
28631;SDS011;15818;45.534;5.292;2022-09-20T01:05:33;3.60;;;1.50;;
28631;SDS011;15818;45.534;5.292;2022-09-20T01:08:01;3.90;;;1.15;;
28631;SDS011;15818;45.534;5.292;2022-09-20T01:10:27;3.22;;;1.30;;
28631;SDS011;15818;45.534;5.292;2022-09-20T01:15:19;4.20;;;1.50;;
28631;SDS011;15818;45.534;5.292;2022-09-20T01:17:48;5.97;;;1.73;;
28631;SDS011;15818;45.534;5.292;2022-09-20T01:20:21;3.78;;;1.33;;
28631;SDS011;15818;45.534;5.292;2022-09-20T01:22:52;3.92;;;1.42;;
28631;SDS011;15818;45.534;5.292;2022-09-20T01:28:18;3.10;;;1.27;;
28631;SDS011;15818;45.534;5.292;2022-09-20T01:30:46;3.78;;;1.20;;
28631;SDS011;15818;45.534;5.292;2022-09-20T01:36:25;4.60;;;1.35;;
28631;SDS011;15818;45.534;5.292;2022-09-20T01:42:12;7.35;;;1.73;;
28631;SDS011;15818;45.534;5.292;2022-09-20T01:53:16;6.40;;;1.45;;
28631;SDS011;15818;45.534;5.292;2022-09-20T01:59:33;5.25;;;1.33;;
28631;SDS011;15818;45.534;5.292;2022-09-20T02:02:06;5.50;;;1.50;;
28631;SDS011;15818;45.534;5.292;2022-09-20T02:13:07;4.60;;;1.40;;
28631;SDS011;15818;45.534;5.292;2022-09-20T02:29:40;8.52;;;1.50;;
28631;SDS011;15818;45.534;5.292;2022-09-20T02:43:37;5.57;;;1.33;;
28631;SDS011;15818;45.534;5.292;2022-09-20T02:46:14;5.03;;;1.63;;
28631;SDS011;15818;45.534;5.292;2022-09-20T02:51:40;6.65;;;1.80;;
28631;SDS011;15818;45.534;5.292;2022-09-20T02:56:53;5.20;;;1.67;;
28631;SDS011;15818;45.534;5.292;2022-09-20T02:59:36;10.70;;;1.92;;
28631;SDS011;15818;45.534;5.292;2022-09-20T03:05:30;5.88;;;1.50;;
28631;SDS011;15818;45.534;5.292;2022-09-20T03:27:31;8.00;;;1.65;;
28631;SDS011;15818;45.534;5.292;2022-09-20T03:35:34;4.32;;;1.35;;
28631;SDS011;15818;45.534;5.292;2022-09-20T03:41:04;4.72;;;1.35;;
28631;SDS011;15818;45.534;5.292;2022-09-20T03:46:24;7.25;;;2.85;;
28631;SDS011;15818;45.534;5.292;2022-09-20T03:51:51;7.30;;;1.92;;
28631;SDS011;15818;45.534;5.292;2022-09-20T03:57:32;4.07;;;1.30;;
28631;SDS011;15818;45.534;5.292;2022-09-20T04:05:39;3.45;;;1.58;;
28631;SDS011;15818;45.534;5.292;2022-09-20T04:11:39;5.28;;;1.80;;
28631;SDS011;15818;45.534;5.292;2022-09-20T04:16:56;5.90;;;1.77;;
28631;SDS011;15818;45.534;5.292;2022-09-20T04:19:44;3.17;;;1.48;;
28631;SDS011;15818;45.534;5.292;2022-09-20T04:22:19;6.30;;;1.50;;
28631;SDS011;15818;45.534;5.292;2022-09-20T04:24:51;7.07;;;1.50;;
28631;SDS011;15818;45.534;5.292;2022-09-20T04:27:26;4.22;;;1.55;;
28631;SDS011;15818;45.534;5.292;2022-09-20T04:30:00;5.70;;;1.80;;
28631;SDS011;15818;45.534;5.292;2022-09-20T04:35:42;4.95;;;1.48;;
28631;SDS011;15818;45.534;5.292;2022-09-20T04:38:34;5.53;;;1.60;;
28631;SDS011;15818;45.534;5.292;2022-09-20T04:46:02;3.15;;;1.45;;
28631;SDS011;15818;45.534;5.292;2022-09-20T04:59:58;6.25;;;1.50;;
28631;SDS011;15818;45.534;5.292;2022-09-20T05:38:59;7.53;;;1.98;;
28631;SDS011;15818;45.534;5.292;2022-09-20T05:42:14;8.80;;;2.08;;
28631;SDS011;15818;45.534;5.292;2022-09-20T05:44:52;8.32;;;1.80;;
28631;SDS011;15818;45.534;5.292;2022-09-20T05:47:24;7.30;;;2.00;;
28631;SDS011;15818;45.534;5.292;2022-09-20T06:01:10;6.03;;;1.77;;
28631;SDS011;15818;45.534;5.292;2022-09-20T06:17:42;9.85;;;1.85;;
28631;SDS011;15818;45.534;5.292;2022-09-20T06:20:19;3.85;;;1.60;;
28631;SDS011;15818;45.534;5.292;2022-09-20T06:23:02;7.10;;;1.90;;
28631;SDS011;15818;45.534;5.292;2022-09-20T06:30:50;6.53;;;2.15;;
28631;SDS011;15818;45.534;5.292;2022-09-20T06:33:17;7.60;;;2.38;;
28631;SDS011;15818;45.534;5.292;2022-09-20T06:35:52;7.18;;;1.80;;
28631;SDS011;15818;45.534;5.292;2022-09-20T06:41:44;7.13;;;2.28;;
28631;SDS011;15818;45.534;5.292;2022-09-20T06:46:36;7.70;;;1.80;;
28631;SDS011;15818;45.534;5.292;2022-09-20T06:49:02;4.93;;;1.83;;
28631;SDS011;15818;45.534;5.292;2022-09-20T06:51:32;6.53;;;1.77;;
28631;SDS011;15818;45.534;5.292;2022-09-20T06:53:59;6.68;;;1.80;;
28631;SDS011;15818;45.534;5.292;2022-09-20T06:58:52;6.05;;;1.70;;
28631;SDS011;15818;45.534;5.292;2022-09-20T07:01:18;6.30;;;1.67;;
28631;SDS011;15818;45.534;5.292;2022-09-20T07:03:44;7.85;;;2.05;;
28631;SDS011;15818;45.534;5.292;2022-09-20T07:08:36;11.68;;;1.85;;
28631;SDS011;15818;45.534;5.292;2022-09-20T07:11:05;7.72;;;1.80;;
28631;SDS011;15818;45.534;5.292;2022-09-20T07:13:33;4.55;;;1.65;;
28631;SDS011;15818;45.534;5.292;2022-09-20T07:16:01;4.90;;;1.75;;
28631;SDS011;15818;45.534;5.292;2022-09-20T07:18:29;9.02;;;2.10;;
28631;SDS011;15818;45.534;5.292;2022-09-20T07:20:55;8.48;;;2.22;;
28631;SDS011;15818;45.534;5.292;2022-09-20T07:23:25;5.80;;;2.33;;
28631;SDS011;15818;45.534;5.292;2022-09-20T07:25:52;9.27;;;2.00;;
28631;SDS011;15818;45.534;5.292;2022-09-20T07:28:18;8.15;;;1.98;;
28631;SDS011;15818;45.534;5.292;2022-09-20T07:30:45;5.70;;;2.03;;
28631;SDS011;15818;45.534;5.292;2022-09-20T07:33:12;8.65;;;2.10;;
28631;SDS011;15818;45.534;5.292;2022-09-20T07:35:44;5.60;;;2.05;;
28631;SDS011;15818;45.534;5.292;2022-09-20T07:38:10;6.93;;;2.35;;
28631;SDS011;15818;45.534;5.292;2022-09-20T07:40:37;5.63;;;1.90;;
28631;SDS011;15818;45.534;5.292;2022-09-20T07:45:28;6.60;;;1.98;;
28631;SDS011;15818;45.534;5.292;2022-09-20T07:47:58;6.25;;;2.08;;
28631;SDS011;15818;45.534;5.292;2022-09-20T07:50:24;5.60;;;2.00;;
28631;SDS011;15818;45.534;5.292;2022-09-20T07:55:15;5.82;;;1.60;;
28631;SDS011;15818;45.534;5.292;2022-09-20T07:57:42;3.60;;;1.80;;
28631;SDS011;15818;45.534;5.292;2022-09-20T08:02:34;5.72;;;1.92;;
28631;SDS011;15818;45.534;5.292;2022-09-20T08:05:00;5.35;;;1.95;;
28631;SDS011;15818;45.534;5.292;2022-09-20T08:07:28;5.82;;;1.90;;
28631;SDS011;15818;45.534;5.292;2022-09-20T08:12:19;8.63;;;2.13;;
28631;SDS011;15818;45.534;5.292;2022-09-20T08:14:46;5.20;;;2.15;;
28631;SDS011;15818;45.534;5.292;2022-09-20T08:19:37;8.82;;;1.73;;
28631;SDS011;15818;45.534;5.292;2022-09-20T08:22:04;4.47;;;1.83;;
28631;SDS011;15818;45.534;5.292;2022-09-20T08:24:31;5.15;;;1.90;;
28631;SDS011;15818;45.534;5.292;2022-09-20T08:29:23;7.55;;;2.17;;
28631;SDS011;15818;45.534;5.292;2022-09-20T08:34:15;6.70;;;2.73;;
28631;SDS011;15818;45.534;5.292;2022-09-20T08:36:43;5.20;;;2.00;;
28631;SDS011;15818;45.534;5.292;2022-09-20T08:39:16;6.82;;;1.90;;
28631;SDS011;15818;45.534;5.292;2022-09-20T08:41:56;4.65;;;1.73;;
28631;SDS011;15818;45.534;5.292;2022-09-20T08:44:46;7.22;;;1.83;;
28631;SDS011;15818;45.534;5.292;2022-09-20T08:49:55;8.02;;;1.95;;
28631;SDS011;15818;45.534;5.292;2022-09-20T08:52:27;7.53;;;2.00;;
28631;SDS011;15818;45.534;5.292;2022-09-20T08:54:54;5.10;;;1.70;;
28631;SDS011;15818;45.534;5.292;2022-09-20T08:57:25;5.97;;;2.25;;
28631;SDS011;15818;45.534;5.292;2022-09-20T08:59:54;5.72;;;1.90;;
28631;SDS011;15818;45.534;5.292;2022-09-20T09:02:22;3.85;;;1.70;;
28631;SDS011;15818;45.534;5.292;2022-09-20T09:07:15;5.28;;;1.98;;
28631;SDS011;15818;45.534;5.292;2022-09-20T09:09:44;3.60;;;1.83;;
28631;SDS011;15818;45.534;5.292;2022-09-20T09:12:13;5.45;;;1.83;;
28631;SDS011;15818;45.534;5.292;2022-09-20T09:14:56;4.43;;;1.90;;
28631;SDS011;15818;45.534;5.292;2022-09-20T09:17:28;7.75;;;1.85;;
28631;SDS011;15818;45.534;5.292;2022-09-20T09:19:56;4.15;;;1.80;;
28631;SDS011;15818;45.534;5.292;2022-09-20T09:25:07;5.25;;;1.88;;
28631;SDS011;15818;45.534;5.292;2022-09-20T09:27:49;3.65;;;1.60;;
28631;SDS011;15818;45.534;5.292;2022-09-20T09:30:22;4.40;;;1.52;;
28631;SDS011;15818;45.534;5.292;2022-09-20T09:32:51;5.57;;;1.80;;
28631;SDS011;15818;45.534;5.292;2022-09-20T09:35:30;7.75;;;1.70;;
28631;SDS011;15818;45.534;5.292;2022-09-20T09:38:00;4.10;;;1.50;;
28631;SDS011;15818;45.534;5.292;2022-09-20T09:40:27;7.97;;;2.00;;
28631;SDS011;15818;45.534;5.292;2022-09-20T09:42:58;6.30;;;1.83;;
28631;SDS011;15818;45.534;5.292;2022-09-20T09:47:55;7.47;;;1.70;;
28631;SDS011;15818;45.534;5.292;2022-09-20T09:50:28;3.53;;;1.38;;
28631;SDS011;15818;45.534;5.292;2022-09-20T09:52:56;4.07;;;1.65;;
28631;SDS011;15818;45.534;5.292;2022-09-20T09:55:24;3.00;;;1.33;;
28631;SDS011;15818;45.534;5.292;2022-09-20T09:57:59;6.47;;;1.75;;
28631;SDS011;15818;45.534;5.292;2022-09-20T10:00:36;9.25;;;1.50;;
28631;SDS011;15818;45.534;5.292;2022-09-20T10:08:38;3.72;;;1.63;;
28631;SDS011;15818;45.534;5.292;2022-09-20T10:16:58;3.35;;;1.40;;
28631;SDS011;15818;45.534;5.292;2022-09-20T10:25:30;4.20;;;1.20;;
28631;SDS011;15818;45.534;5.292;2022-09-20T10:33:42;4.05;;;1.50;;
28631;SDS011;15818;45.534;5.292;2022-09-20T10:36:42;4.82;;;1.40;;
28631;SDS011;15818;45.534;5.292;2022-09-20T10:47:32;4.28;;;1.40;;
28631;SDS011;15818;45.534;5.292;2022-09-20T10:55:36;3.55;;;1.58;;
28631;SDS011;15818;45.534;5.292;2022-09-20T11:08:48;5.95;;;1.70;;
28631;SDS011;15818;45.534;5.292;2022-09-20T11:14:32;7.95;;;1.50;;
28631;SDS011;15818;45.534;5.292;2022-09-20T11:22:18;3.30;;;1.30;;
28631;SDS011;15818;45.534;5.292;2022-09-20T11:24:54;2.85;;;1.25;;
28631;SDS011;15818;45.534;5.292;2022-09-20T11:27:31;6.28;;;1.58;;
28631;SDS011;15818;45.534;5.292;2022-09-20T11:30:05;4.55;;;1.40;;
28631;SDS011;15818;45.534;5.292;2022-09-20T11:35:39;7.10;;;1.45;;
28631;SDS011;15818;45.534;5.292;2022-09-20T11:38:18;1.23;;;1.13;;
28631;SDS011;15818;45.534;5.292;2022-09-20T11:40:48;7.40;;;1.77;;
28631;SDS011;15818;45.534;5.292;2022-09-20T11:43:36;6.30;;;1.70;;
28631;SDS011;15818;45.534;5.292;2022-09-20T11:46:10;4.07;;;1.33;;
28631;SDS011;15818;45.534;5.292;2022-09-20T11:48:47;5.47;;;1.58;;
28631;SDS011;15818;45.534;5.292;2022-09-20T11:54:26;5.70;;;1.67;;
28631;SDS011;15818;45.534;5.292;2022-09-20T11:57:00;4.40;;;1.38;;
28631;SDS011;15818;45.534;5.292;2022-09-20T12:02:12;5.38;;;1.60;;
28631;SDS011;15818;45.534;5.292;2022-09-20T12:04:46;3.95;;;1.70;;
28631;SDS011;15818;45.534;5.292;2022-09-20T12:09:45;2.78;;;1.38;;
28631;SDS011;15818;45.534;5.292;2022-09-20T12:15:07;3.45;;;1.67;;
28631;SDS011;15818;45.534;5.292;2022-09-20T12:29:01;3.17;;;1.35;;
28631;SDS011;15818;45.534;5.292;2022-09-20T12:31:47;4.57;;;1.50;;
28631;SDS011;15818;45.534;5.292;2022-09-20T12:36:44;4.28;;;1.52;;
28631;SDS011;15818;45.534;5.292;2022-09-20T12:39:36;6.37;;;1.40;;
28631;SDS011;15818;45.534;5.292;2022-09-20T12:49:41;3.25;;;1.38;;
28631;SDS011;15818;45.534;5.292;2022-09-20T13:03:32;5.35;;;1.52;;
28631;SDS011;15818;45.534;5.292;2022-09-20T13:08:43;2.30;;;1.20;;
28631;SDS011;15818;45.534;5.292;2022-09-20T13:11:39;4.03;;;1.50;;
28631;SDS011;15818;45.534;5.292;2022-09-20T13:17:03;2.80;;;1.40;;
28631;SDS011;15818;45.534;5.292;2022-09-20T13:19:46;2.63;;;1.20;;
28631;SDS011;15818;45.534;5.292;2022-09-20T13:25:02;4.18;;;1.27;;
28631;SDS011;15818;45.534;5.292;2022-09-20T13:27:31;3.90;;;1.15;;
28631;SDS011;15818;45.534;5.292;2022-09-20T13:30:17;5.25;;;1.42;;
28631;SDS011;15818;45.534;5.292;2022-09-20T13:32:45;4.78;;;1.60;;
28631;SDS011;15818;45.534;5.292;2022-09-20T13:35:13;5.10;;;1.30;;
28631;SDS011;15818;45.534;5.292;2022-09-20T13:37:59;2.53;;;1.20;;
28631;SDS011;15818;45.534;5.292;2022-09-20T13:40:35;5.82;;;1.70;;
28631;SDS011;15818;45.534;5.292;2022-09-20T13:46:12;4.60;;;1.73;;
28631;SDS011;15818;45.534;5.292;2022-09-20T13:48:44;3.90;;;1.35;;
28631;SDS011;15818;45.534;5.292;2022-09-20T13:51:18;3.65;;;1.30;;
28631;SDS011;15818;45.534;5.292;2022-09-20T13:53:47;4.40;;;1.20;;
28631;SDS011;15818;45.534;5.292;2022-09-20T13:56:22;4.13;;;1.25;;
28631;SDS011;15818;45.534;5.292;2022-09-20T13:58:52;5.63;;;1.35;;
28631;SDS011;15818;45.534;5.292;2022-09-20T14:01:22;3.22;;;1.55;;
28631;SDS011;15818;45.534;5.292;2022-09-20T14:04:02;4.90;;;1.20;;
28631;SDS011;15818;45.534;5.292;2022-09-20T14:06:32;3.05;;;1.10;;
28631;SDS011;15818;45.534;5.292;2022-09-20T14:09:00;5.25;;;1.40;;
28631;SDS011;15818;45.534;5.292;2022-09-20T14:11:30;3.47;;;1.40;;
28631;SDS011;15818;45.534;5.292;2022-09-20T14:13:58;9.70;;;1.48;;
28631;SDS011;15818;45.534;5.292;2022-09-20T14:16:27;7.22;;;1.50;;
28631;SDS011;15818;45.534;5.292;2022-09-20T14:18:58;4.13;;;1.33;;
28631;SDS011;15818;45.534;5.292;2022-09-20T14:21:26;4.55;;;1.35;;
28631;SDS011;15818;45.534;5.292;2022-09-20T14:26:25;3.20;;;1.27;;
28631;SDS011;15818;45.534;5.292;2022-09-20T14:29:18;2.40;;;1.20;;
28631;SDS011;15818;45.534;5.292;2022-09-20T14:32:08;5.40;;;1.60;;
28631;SDS011;15818;45.534;5.292;2022-09-20T14:34:44;4.63;;;1.45;;
28631;SDS011;15818;45.534;5.292;2022-09-20T14:37:34;5.55;;;1.23;;
28631;SDS011;15818;45.534;5.292;2022-09-20T14:40:22;7.00;;;1.92;;
28631;SDS011;15818;45.534;5.292;2022-09-20T14:43:31;5.82;;;1.65;;
28631;SDS011;15818;45.534;5.292;2022-09-20T14:45:59;6.18;;;1.35;;
28631;SDS011;15818;45.534;5.292;2022-09-20T14:48:32;6.45;;;1.20;;
28631;SDS011;15818;45.534;5.292;2022-09-20T14:51:09;5.10;;;1.60;;
28631;SDS011;15818;45.534;5.292;2022-09-20T14:53:50;3.53;;;1.30;;
28631;SDS011;15818;45.534;5.292;2022-09-20T14:56:38;4.97;;;1.30;;
28631;SDS011;15818;45.534;5.292;2022-09-20T15:01:42;4.53;;;1.23;;
28631;SDS011;15818;45.534;5.292;2022-09-20T15:04:18;3.38;;;1.38;;
28631;SDS011;15818;45.534;5.292;2022-09-20T15:06:47;4.32;;;2.28;;
28631;SDS011;15818;45.534;5.292;2022-09-20T15:09:14;3.70;;;1.20;;
28631;SDS011;15818;45.534;5.292;2022-09-20T15:11:40;3.40;;;1.10;;
28631;SDS011;15818;45.534;5.292;2022-09-20T15:14:06;7.05;;;1.30;;
28631;SDS011;15818;45.534;5.292;2022-09-20T15:16:32;2.65;;;1.13;;
28631;SDS011;15818;45.534;5.292;2022-09-20T15:18:58;4.60;;;1.30;;
28631;SDS011;15818;45.534;5.292;2022-09-20T15:21:24;4.53;;;1.13;;
28631;SDS011;15818;45.534;5.292;2022-09-20T15:23:50;3.47;;;1.30;;
28631;SDS011;15818;45.534;5.292;2022-09-20T15:26:17;9.07;;;1.60;;
28631;SDS011;15818;45.534;5.292;2022-09-20T15:28:45;4.57;;;1.45;;
28631;SDS011;15818;45.534;5.292;2022-09-20T15:31:12;3.63;;;1.35;;
28631;SDS011;15818;45.534;5.292;2022-09-20T15:33:39;6.63;;;1.23;;
28631;SDS011;15818;45.534;5.292;2022-09-20T15:36:05;3.72;;;1.23;;
28631;SDS011;15818;45.534;5.292;2022-09-20T15:38:31;4.43;;;1.42;;
28631;SDS011;15818;45.534;5.292;2022-09-20T15:40:59;3.97;;;1.20;;
28631;SDS011;15818;45.534;5.292;2022-09-20T15:43:27;3.40;;;1.17;;
28631;SDS011;15818;45.534;5.292;2022-09-20T15:46:15;4.38;;;1.25;;
28631;SDS011;15818;45.534;5.292;2022-09-20T15:48:40;4.28;;;1.00;;
28631;SDS011;15818;45.534;5.292;2022-09-20T15:51:07;4.28;;;1.20;;
28631;SDS011;15818;45.534;5.292;2022-09-20T15:53:39;3.15;;;1.30;;
28631;SDS011;15818;45.534;5.292;2022-09-20T15:56:19;6.10;;;1.40;;
28631;SDS011;15818;45.534;5.292;2022-09-20T15:58:48;4.63;;;1.30;;
28631;SDS011;15818;45.534;5.292;2022-09-20T16:01:15;3.75;;;1.20;;
28631;SDS011;15818;45.534;5.292;2022-09-20T16:03:43;4.82;;;1.33;;
28631;SDS011;15818;45.534;5.292;2022-09-20T16:06:10;2.88;;;1.25;;
28631;SDS011;15818;45.534;5.292;2022-09-20T16:08:41;2.05;;;0.90;;
28631;SDS011;15818;45.534;5.292;2022-09-20T16:11:08;3.65;;;1.08;;
28631;SDS011;15818;45.534;5.292;2022-09-20T16:13:36;4.57;;;1.13;;
28631;SDS011;15818;45.534;5.292;2022-09-20T16:16:02;5.68;;;1.30;;
28631;SDS011;15818;45.534;5.292;2022-09-20T16:18:29;6.05;;;1.30;;
28631;SDS011;15818;45.534;5.292;2022-09-20T16:21:15;2.38;;;0.85;;
28631;SDS011;15818;45.534;5.292;2022-09-20T16:23:49;3.40;;;1.30;;
28631;SDS011;15818;45.534;5.292;2022-09-20T16:26:19;3.65;;;1.20;;
28631;SDS011;15818;45.534;5.292;2022-09-20T16:28:46;6.85;;;1.40;;
28631;SDS011;15818;45.534;5.292;2022-09-20T16:31:33;3.80;;;1.17;;
28631;SDS011;15818;45.534;5.292;2022-09-20T16:34:02;3.95;;;1.25;;
28631;SDS011;15818;45.534;5.292;2022-09-20T16:36:31;6.10;;;1.50;;
28631;SDS011;15818;45.534;5.292;2022-09-20T16:38:56;5.30;;;1.40;;
28631;SDS011;15818;45.534;5.292;2022-09-20T16:41:23;4.45;;;1.33;;
28631;SDS011;15818;45.534;5.292;2022-09-20T16:43:50;2.88;;;1.25;;
28631;SDS011;15818;45.534;5.292;2022-09-20T16:46:23;3.20;;;1.10;;
28631;SDS011;15818;45.534;5.292;2022-09-20T16:48:53;2.85;;;1.33;;
28631;SDS011;15818;45.534;5.292;2022-09-20T16:51:20;2.55;;;1.10;;
28631;SDS011;15818;45.534;5.292;2022-09-20T16:53:49;4.88;;;1.20;;
28631;SDS011;15818;45.534;5.292;2022-09-20T16:56:19;4.90;;;1.10;;
28631;SDS011;15818;45.534;5.292;2022-09-20T16:58:49;2.35;;;1.20;;
28631;SDS011;15818;45.534;5.292;2022-09-20T17:01:15;4.65;;;1.23;;
28631;SDS011;15818;45.534;5.292;2022-09-20T17:03:41;6.45;;;1.45;;
28631;SDS011;15818;45.534;5.292;2022-09-20T17:06:08;2.13;;;1.00;;
28631;SDS011;15818;45.534;5.292;2022-09-20T17:08:35;4.47;;;1.20;;
28631;SDS011;15818;45.534;5.292;2022-09-20T17:11:05;7.05;;;1.40;;
28631;SDS011;15818;45.534;5.292;2022-09-20T17:13:38;6.00;;;1.10;;
28631;SDS011;15818;45.534;5.292;2022-09-20T17:16:09;4.90;;;1.25;;
28631;SDS011;15818;45.534;5.292;2022-09-20T17:18:36;3.75;;;1.23;;
28631;SDS011;15818;45.534;5.292;2022-09-20T17:21:07;4.82;;;1.20;;
28631;SDS011;15818;45.534;5.292;2022-09-20T17:23:38;3.88;;;1.30;;
28631;SDS011;15818;45.534;5.292;2022-09-20T17:26:09;8.20;;;1.30;;
28631;SDS011;15818;45.534;5.292;2022-09-20T17:28:38;4.45;;;1.42;;
28631;SDS011;15818;45.534;5.292;2022-09-20T17:31:06;4.95;;;1.30;;
28631;SDS011;15818;45.534;5.292;2022-09-20T17:33:33;5.15;;;1.20;;
28631;SDS011;15818;45.534;5.292;2022-09-20T17:36:00;6.88;;;1.20;;
28631;SDS011;15818;45.534;5.292;2022-09-20T17:38:30;2.72;;;1.10;;
28631;SDS011;15818;45.534;5.292;2022-09-20T17:41:07;7.13;;;1.38;;
28631;SDS011;15818;45.534;5.292;2022-09-20T17:43:38;6.30;;;1.33;;
28631;SDS011;15818;45.534;5.292;2022-09-20T17:48:46;3.35;;;1.42;;
28631;SDS011;15818;45.534;5.292;2022-09-20T17:51:16;3.88;;;1.35;;
28631;SDS011;15818;45.534;5.292;2022-09-20T17:53:43;3.60;;;1.20;;
28631;SDS011;15818;45.534;5.292;2022-09-20T17:56:10;4.93;;;1.38;;
28631;SDS011;15818;45.534;5.292;2022-09-20T17:58:37;6.97;;;1.60;;
28631;SDS011;15818;45.534;5.292;2022-09-20T18:01:08;6.18;;;1.33;;
28631;SDS011;15818;45.534;5.292;2022-09-20T18:03:37;5.00;;;1.20;;
28631;SDS011;15818;45.534;5.292;2022-09-20T18:08:52;3.88;;;0.98;;
28631;SDS011;15818;45.534;5.292;2022-09-20T18:11:20;6.47;;;1.20;;
28631;SDS011;15818;45.534;5.292;2022-09-20T18:13:47;3.90;;;1.60;;
28631;SDS011;15818;45.534;5.292;2022-09-20T18:16:14;4.93;;;1.30;;
28631;SDS011;15818;45.534;5.292;2022-09-20T18:18:42;7.45;;;1.40;;
28631;SDS011;15818;45.534;5.292;2022-09-20T18:23:38;3.70;;;1.40;;
28631;SDS011;15818;45.534;5.292;2022-09-20T18:26:05;4.82;;;1.10;;
28631;SDS011;15818;45.534;5.292;2022-09-20T18:28:56;4.13;;;1.17;;
28631;SDS011;15818;45.534;5.292;2022-09-20T18:31:26;9.40;;;1.58;;
28631;SDS011;15818;45.534;5.292;2022-09-20T18:34:03;8.27;;;1.75;;
28631;SDS011;15818;45.534;5.292;2022-09-20T18:36:31;4.75;;;1.08;;
28631;SDS011;15818;45.534;5.292;2022-09-20T18:38:58;3.40;;;1.20;;
28631;SDS011;15818;45.534;5.292;2022-09-20T18:43:52;3.47;;;1.50;;
28631;SDS011;15818;45.534;5.292;2022-09-20T18:46:18;3.90;;;1.30;;
28631;SDS011;15818;45.534;5.292;2022-09-20T18:48:48;5.18;;;1.30;;
28631;SDS011;15818;45.534;5.292;2022-09-20T18:51:14;5.78;;;1.73;;
28631;SDS011;15818;45.534;5.292;2022-09-20T18:53:40;5.82;;;1.20;;
28631;SDS011;15818;45.534;5.292;2022-09-20T18:58:33;5.43;;;1.48;;
28631;SDS011;15818;45.534;5.292;2022-09-20T19:06:56;6.00;;;1.40;;
28631;SDS011;15818;45.534;5.292;2022-09-20T19:12:32;8.00;;;1.35;;
28631;SDS011;15818;45.534;5.292;2022-09-20T19:18:15;4.28;;;1.23;;
28631;SDS011;15818;45.534;5.292;2022-09-20T19:26:33;5.53;;;1.40;;
28631;SDS011;15818;45.534;5.292;2022-09-20T19:29:03;4.68;;;1.85;;
28631;SDS011;15818;45.534;5.292;2022-09-20T19:31:47;8.95;;;1.52;;
28631;SDS011;15818;45.534;5.292;2022-09-20T19:34:19;4.70;;;1.38;;
28631;SDS011;15818;45.534;5.292;2022-09-20T19:37:05;10.30;;;1.55;;
28631;SDS011;15818;45.534;5.292;2022-09-20T19:42:36;7.65;;;1.30;;
28631;SDS011;15818;45.534;5.292;2022-09-20T19:48:26;5.22;;;1.33;;
28631;SDS011;15818;45.534;5.292;2022-09-20T19:50:56;2.80;;;1.20;;
28631;SDS011;15818;45.534;5.292;2022-09-20T19:53:26;3.35;;;1.63;;
28631;SDS011;15818;45.534;5.292;2022-09-20T19:55:54;6.28;;;1.50;;
28631;SDS011;15818;45.534;5.292;2022-09-20T19:58:24;8.43;;;1.30;;
28631;SDS011;15818;45.534;5.292;2022-09-20T20:00:50;3.05;;;1.20;;
28631;SDS011;15818;45.534;5.292;2022-09-20T20:03:17;5.07;;;1.27;;
28631;SDS011;15818;45.534;5.292;2022-09-20T20:05:47;3.28;;;1.20;;
28631;SDS011;15818;45.534;5.292;2022-09-20T20:08:25;2.67;;;1.30;;
28631;SDS011;15818;45.534;5.292;2022-09-20T20:21:49;4.30;;;1.35;;
28631;SDS011;15818;45.534;5.292;2022-09-20T20:24:35;3.50;;;1.30;;
28631;SDS011;15818;45.534;5.292;2022-09-20T20:27:16;4.90;;;1.20;;
28631;SDS011;15818;45.534;5.292;2022-09-20T20:29:42;4.40;;;1.20;;
28631;SDS011;15818;45.534;5.292;2022-09-20T20:34:33;2.95;;;1.20;;
28631;SDS011;15818;45.534;5.292;2022-09-20T20:37:01;6.25;;;1.40;;
28631;SDS011;15818;45.534;5.292;2022-09-20T20:39:30;3.90;;;1.23;;
28631;SDS011;15818;45.534;5.292;2022-09-20T20:44:25;4.05;;;1.25;;
28631;SDS011;15818;45.534;5.292;2022-09-20T20:46:59;6.70;;;1.38;;
28631;SDS011;15818;45.534;5.292;2022-09-20T20:49:25;5.18;;;1.25;;
28631;SDS011;15818;45.534;5.292;2022-09-20T20:54:16;5.95;;;1.45;;
28631;SDS011;15818;45.534;5.292;2022-09-20T20:59:08;3.72;;;1.10;;
28631;SDS011;15818;45.534;5.292;2022-09-20T21:04:01;4.32;;;2.15;;
28631;SDS011;15818;45.534;5.292;2022-09-20T21:06:31;6.50;;;1.38;;
28631;SDS011;15818;45.534;5.292;2022-09-20T21:08:58;3.97;;;1.23;;
28631;SDS011;15818;45.534;5.292;2022-09-20T21:11:25;3.05;;;1.38;;
28631;SDS011;15818;45.534;5.292;2022-09-20T21:13:53;7.53;;;1.42;;
28631;SDS011;15818;45.534;5.292;2022-09-20T21:16:27;2.25;;;1.38;;
28631;SDS011;15818;45.534;5.292;2022-09-20T21:18:55;7.60;;;1.63;;
28631;SDS011;15818;45.534;5.292;2022-09-20T21:21:22;3.70;;;1.27;;
28631;SDS011;15818;45.534;5.292;2022-09-20T21:23:56;7.15;;;1.60;;
28631;SDS011;15818;45.534;5.292;2022-09-20T21:26:24;4.85;;;1.38;;
28631;SDS011;15818;45.534;5.292;2022-09-20T21:28:54;3.15;;;1.27;;
28631;SDS011;15818;45.534;5.292;2022-09-20T21:31:24;4.40;;;1.27;;
28631;SDS011;15818;45.534;5.292;2022-09-20T21:33:54;1.92;;;0.90;;
28631;SDS011;15818;45.534;5.292;2022-09-20T21:36:22;4.95;;;1.65;;
28631;SDS011;15818;45.534;5.292;2022-09-20T21:38:49;3.53;;;1.15;;
28631;SDS011;15818;45.534;5.292;2022-09-20T21:41:16;6.72;;;1.30;;
28631;SDS011;15818;45.534;5.292;2022-09-20T21:43:44;7.55;;;1.42;;
28631;SDS011;15818;45.534;5.292;2022-09-20T21:46:16;3.47;;;1.15;;
28631;SDS011;15818;45.534;5.292;2022-09-20T21:48:53;4.57;;;1.20;;
28631;SDS011;15818;45.534;5.292;2022-09-20T21:51:28;3.83;;;1.10;;
28631;SDS011;15818;45.534;5.292;2022-09-20T21:53:55;4.13;;;1.40;;
28631;SDS011;15818;45.534;5.292;2022-09-20T21:56:22;4.47;;;1.30;;
28631;SDS011;15818;45.534;5.292;2022-09-20T21:58:49;4.63;;;1.25;;
28631;SDS011;15818;45.534;5.292;2022-09-20T22:03:43;2.58;;;1.00;;
28631;SDS011;15818;45.534;5.292;2022-09-20T22:06:13;1.80;;;1.20;;
28631;SDS011;15818;45.534;5.292;2022-09-20T22:08:41;6.80;;;1.25;;
28631;SDS011;15818;45.534;5.292;2022-09-20T22:11:23;5.80;;;1.40;;
28631;SDS011;15818;45.534;5.292;2022-09-20T22:13:51;5.53;;;1.35;;
28631;SDS011;15818;45.534;5.292;2022-09-20T22:16:19;2.22;;;1.20;;
28631;SDS011;15818;45.534;5.292;2022-09-20T22:18:47;5.60;;;1.30;;
28631;SDS011;15818;45.534;5.292;2022-09-20T22:23:40;4.38;;;1.40;;
28631;SDS011;15818;45.534;5.292;2022-09-20T22:26:08;7.38;;;1.48;;
28631;SDS011;15818;45.534;5.292;2022-09-20T22:28:37;5.38;;;1.23;;
28631;SDS011;15818;45.534;5.292;2022-09-20T22:31:07;6.45;;;2.10;;